sensor_id;sensor_type;location;lat;lon;timestamp;pressure;altitude;pressure_sealevel;temperature;humidity
57250;BME280;43102;52.014;-0.680;2023-04-20T00:00:00;101645;;;7.53;64.70
57250;BME280;43102;52.014;-0.680;2023-04-20T00:01:00;101640;;;7.51;64.79
57250;BME280;43102;52.014;-0.680;2023-04-20T00:02:00;101640;;;7.51;64.79
57250;BME280;43102;52.014;-0.680;2023-04-20T00:03:00;101640;;;7.51;64.79
57250;BME280;43102;52.014;-0.680;2023-04-20T00:04:00;101640;;;7.51;64.79
57250;BME280;43102;52.014;-0.680;2023-04-20T00:05:00;101640;;;7.51;64.79
57250;BME280;43102;52.014;-0.680;2023-04-20T00:06:00;101636;;;7.44;64.85
57250;BME280;43102;52.014;-0.680;2023-04-20T00:07:00;101636;;;7.44;64.85
57250;BME280;43102;52.014;-0.680;2023-04-20T00:08:00;101636;;;7.44;64.85
57250;BME280;43102;52.014;-0.680;2023-04-20T00:09:00;101636;;;7.44;64.85
57250;BME280;43102;52.014;-0.680;2023-04-20T00:10:00;101636;;;7.44;64.85
57250;BME280;43102;52.014;-0.680;2023-04-20T00:11:00;101628;;;7.27;65.32
57250;BME280;43102;52.014;-0.680;2023-04-20T00:12:00;101628;;;7.27;65.32
57250;BME280;43102;52.014;-0.680;2023-04-20T00:13:00;101628;;;7.27;65.32
57250;BME280;43102;52.014;-0.680;2023-04-20T00:14:00;101628;;;7.27;65.32
57250;BME280;43102;52.014;-0.680;2023-04-20T00:15:00;101628;;;7.27;65.32
57250;BME280;43102;52.014;-0.680;2023-04-20T00:16:00;101634;;;7.20;65.61
57250;BME280;43102;52.014;-0.680;2023-04-20T00:17:00;101634;;;7.20;65.61
57250;BME280;43102;52.014;-0.680;2023-04-20T00:18:00;101634;;;7.20;65.61
57250;BME280;43102;52.014;-0.680;2023-04-20T00:19:00;101634;;;7.20;65.61
57250;BME280;43102;52.014;-0.680;2023-04-20T00:20:00;101634;;;7.20;65.61
57250;BME280;43102;52.014;-0.680;2023-04-20T00:21:00;101629;;;7.12;65.85
57250;BME280;43102;52.014;-0.680;2023-04-20T00:22:00;101629;;;7.12;65.85
57250;BME280;43102;52.014;-0.680;2023-04-20T00:23:00;101629;;;7.12;65.85
57250;BME280;43102;52.014;-0.680;2023-04-20T00:24:00;101629;;;7.12;65.85
57250;BME280;43102;52.014;-0.680;2023-04-20T00:25:00;101629;;;7.12;65.85
57250;BME280;43102;52.014;-0.680;2023-04-20T00:26:00;101627;;;7.07;65.86
57250;BME280;43102;52.014;-0.680;2023-04-20T00:27:00;101627;;;7.07;65.86
57250;BME280;43102;52.014;-0.680;2023-04-20T00:28:00;101627;;;7.07;65.86
57250;BME280;43102;52.014;-0.680;2023-04-20T00:29:00;101627;;;7.07;65.86
57250;BME280;43102;52.014;-0.680;2023-04-20T00:30:00;101627;;;7.07;65.86
57250;BME280;43102;52.014;-0.680;2023-04-20T00:31:00;101623;;;7.02;66.00
57250;BME280;43102;52.014;-0.680;2023-04-20T00:32:00;101623;;;7.02;66.00
57250;BME280;43102;52.014;-0.680;2023-04-20T00:33:00;101623;;;7.02;66.00
57250;BME280;43102;52.014;-0.680;2023-04-20T00:34:00;101623;;;7.02;66.00
57250;BME280;43102;52.014;-0.680;2023-04-20T00:35:00;101623;;;7.02;66.00
57250;BME280;43102;52.014;-0.680;2023-04-20T00:36:00;101618;;;6.97;66.12
57250;BME280;43102;52.014;-0.680;2023-04-20T00:37:00;101618;;;6.97;66.12
57250;BME280;43102;52.014;-0.680;2023-04-20T00:38:00;101618;;;6.97;66.12
57250;BME280;43102;52.014;-0.680;2023-04-20T00:39:00;101618;;;6.97;66.12
57250;BME280;43102;52.014;-0.680;2023-04-20T00:40:00;101618;;;6.97;66.12
57250;BME280;43102;52.014;-0.680;2023-04-20T00:41:00;101617;;;6.84;66.80
57250;BME280;43102;52.014;-0.680;2023-04-20T00:42:03;101617;;;6.84;66.80
57250;BME280;43102;52.014;-0.680;2023-04-20T00:43:15;101617;;;6.84;66.80
57250;BME280;43102;52.014;-0.680;2023-04-20T00:44:00;101617;;;6.84;66.80
57250;BME280;43102;52.014;-0.680;2023-04-20T00:45:00;101617;;;6.84;66.80
57250;BME280;43102;52.014;-0.680;2023-04-20T00:46:00;101609;;;6.89;66.79
57250;BME280;43102;52.014;-0.680;2023-04-20T00:47:00;101609;;;6.89;66.79
57250;BME280;43102;52.014;-0.680;2023-04-20T00:48:00;101609;;;6.89;66.79
57250;BME280;43102;52.014;-0.680;2023-04-20T00:49:00;101609;;;6.89;66.79
57250;BME280;43102;52.014;-0.680;2023-04-20T00:50:00;101609;;;6.89;66.79
57250;BME280;43102;52.014;-0.680;2023-04-20T00:51:00;101606;;;6.87;67.28
57250;BME280;43102;52.014;-0.680;2023-04-20T00:52:00;101606;;;6.87;67.28
57250;BME280;43102;52.014;-0.680;2023-04-20T00:53:00;101606;;;6.87;67.28
57250;BME280;43102;52.014;-0.680;2023-04-20T00:54:00;101606;;;6.87;67.28
57250;BME280;43102;52.014;-0.680;2023-04-20T00:55:00;101606;;;6.87;67.28
57250;BME280;43102;52.014;-0.680;2023-04-20T00:56:00;101602;;;6.91;67.27
57250;BME280;43102;52.014;-0.680;2023-04-20T00:57:00;101602;;;6.91;67.27
57250;BME280;43102;52.014;-0.680;2023-04-20T00:58:00;101602;;;6.91;67.27
57250;BME280;43102;52.014;-0.680;2023-04-20T00:59:00;101602;;;6.91;67.27
57250;BME280;43102;52.014;-0.680;2023-04-20T01:00:00;101602;;;6.91;67.27
57250;BME280;43102;52.014;-0.680;2023-04-20T01:01:00;101597;;;6.90;67.38
57250;BME280;43102;52.014;-0.680;2023-04-20T01:02:00;101597;;;6.90;67.38
57250;BME280;43102;52.014;-0.680;2023-04-20T01:03:00;101597;;;6.90;67.38
57250;BME280;43102;52.014;-0.680;2023-04-20T01:04:00;101597;;;6.90;67.38
57250;BME280;43102;52.014;-0.680;2023-04-20T01:05:00;101597;;;6.90;67.38
57250;BME280;43102;52.014;-0.680;2023-04-20T01:06:00;101598;;;6.87;67.47
57250;BME280;43102;52.014;-0.680;2023-04-20T01:07:00;101598;;;6.87;67.47
57250;BME280;43102;52.014;-0.680;2023-04-20T01:08:00;101598;;;6.87;67.47
57250;BME280;43102;52.014;-0.680;2023-04-20T01:09:00;101598;;;6.87;67.47
57250;BME280;43102;52.014;-0.680;2023-04-20T01:10:00;101598;;;6.87;67.47
57250;BME280;43102;52.014;-0.680;2023-04-20T01:11:00;101588;;;6.84;67.57
57250;BME280;43102;52.014;-0.680;2023-04-20T01:12:00;101588;;;6.84;67.57
57250;BME280;43102;52.014;-0.680;2023-04-20T01:13:00;101588;;;6.84;67.57
57250;BME280;43102;52.014;-0.680;2023-04-20T01:14:00;101588;;;6.84;67.57
57250;BME280;43102;52.014;-0.680;2023-04-20T01:15:01;101588;;;6.84;67.57
57250;BME280;43102;52.014;-0.680;2023-04-20T01:16:00;101578;;;6.81;67.72
57250;BME280;43102;52.014;-0.680;2023-04-20T01:17:00;101578;;;6.81;67.72
57250;BME280;43102;52.014;-0.680;2023-04-20T01:18:00;101578;;;6.81;67.72
57250;BME280;43102;52.014;-0.680;2023-04-20T01:19:00;101578;;;6.81;67.72
57250;BME280;43102;52.014;-0.680;2023-04-20T01:20:00;101578;;;6.81;67.72
57250;BME280;43102;52.014;-0.680;2023-04-20T01:21:00;101580;;;6.77;68.17
57250;BME280;43102;52.014;-0.680;2023-04-20T01:22:00;101580;;;6.77;68.17
57250;BME280;43102;52.014;-0.680;2023-04-20T01:23:00;101580;;;6.77;68.17
57250;BME280;43102;52.014;-0.680;2023-04-20T01:24:00;101580;;;6.77;68.17
57250;BME280;43102;52.014;-0.680;2023-04-20T01:25:00;101580;;;6.77;68.17
57250;BME280;43102;52.014;-0.680;2023-04-20T01:26:00;101576;;;6.77;68.33
57250;BME280;43102;52.014;-0.680;2023-04-20T01:27:00;101576;;;6.77;68.33
57250;BME280;43102;52.014;-0.680;2023-04-20T01:28:00;101576;;;6.77;68.33
57250;BME280;43102;52.014;-0.680;2023-04-20T01:29:00;101576;;;6.77;68.33
57250;BME280;43102;52.014;-0.680;2023-04-20T01:30:00;101576;;;6.77;68.33
57250;BME280;43102;52.014;-0.680;2023-04-20T01:31:01;101573;;;6.79;68.57
57250;BME280;43102;52.014;-0.680;2023-04-20T01:32:00;101573;;;6.79;68.57
57250;BME280;43102;52.014;-0.680;2023-04-20T01:33:00;101573;;;6.79;68.57
57250;BME280;43102;52.014;-0.680;2023-04-20T01:34:00;101573;;;6.79;68.57
57250;BME280;43102;52.014;-0.680;2023-04-20T01:35:00;101573;;;6.79;68.57
57250;BME280;43102;52.014;-0.680;2023-04-20T01:36:00;101568;;;6.81;68.73
57250;BME280;43102;52.014;-0.680;2023-04-20T01:37:00;101568;;;6.81;68.73
57250;BME280;43102;52.014;-0.680;2023-04-20T01:38:00;101568;;;6.81;68.73
57250;BME280;43102;52.014;-0.680;2023-04-20T01:39:00;101568;;;6.81;68.73
57250;BME280;43102;52.014;-0.680;2023-04-20T01:40:00;101568;;;6.81;68.73
57250;BME280;43102;52.014;-0.680;2023-04-20T01:41:01;101569;;;6.75;69.04
57250;BME280;43102;52.014;-0.680;2023-04-20T01:42:00;101569;;;6.75;69.04
57250;BME280;43102;52.014;-0.680;2023-04-20T01:43:00;101569;;;6.75;69.04
57250;BME280;43102;52.014;-0.680;2023-04-20T01:44:00;101569;;;6.75;69.04
57250;BME280;43102;52.014;-0.680;2023-04-20T01:45:00;101569;;;6.75;69.04
57250;BME280;43102;52.014;-0.680;2023-04-20T01:46:00;101560;;;6.80;69.05
57250;BME280;43102;52.014;-0.680;2023-04-20T01:47:00;101560;;;6.80;69.05
57250;BME280;43102;52.014;-0.680;2023-04-20T01:48:00;101560;;;6.80;69.05
57250;BME280;43102;52.014;-0.680;2023-04-20T01:49:00;101560;;;6.80;69.05
57250;BME280;43102;52.014;-0.680;2023-04-20T01:50:00;101560;;;6.80;69.05
57250;BME280;43102;52.014;-0.680;2023-04-20T01:51:00;101559;;;6.75;69.45
57250;BME280;43102;52.014;-0.680;2023-04-20T01:52:00;101559;;;6.75;69.45
57250;BME280;43102;52.014;-0.680;2023-04-20T01:53:00;101559;;;6.75;69.45
57250;BME280;43102;52.014;-0.680;2023-04-20T01:54:00;101559;;;6.75;69.45
57250;BME280;43102;52.014;-0.680;2023-04-20T01:55:00;101559;;;6.75;69.45
57250;BME280;43102;52.014;-0.680;2023-04-20T01:56:00;101551;;;6.72;69.83
57250;BME280;43102;52.014;-0.680;2023-04-20T01:57:00;101551;;;6.72;69.83
57250;BME280;43102;52.014;-0.680;2023-04-20T01:58:00;101551;;;6.72;69.83
57250;BME280;43102;52.014;-0.680;2023-04-20T01:59:00;101551;;;6.72;69.83
57250;BME280;43102;52.014;-0.680;2023-04-20T02:00:00;101551;;;6.72;69.83
57250;BME280;43102;52.014;-0.680;2023-04-20T02:01:00;101547;;;6.68;70.37
57250;BME280;43102;52.014;-0.680;2023-04-20T02:02:00;101547;;;6.68;70.37
57250;BME280;43102;52.014;-0.680;2023-04-20T02:03:00;101547;;;6.68;70.37
57250;BME280;43102;52.014;-0.680;2023-04-20T02:04:00;101547;;;6.68;70.37
57250;BME280;43102;52.014;-0.680;2023-04-20T02:05:00;101547;;;6.68;70.37
57250;BME280;43102;52.014;-0.680;2023-04-20T02:06:00;101548;;;6.61;71.15
57250;BME280;43102;52.014;-0.680;2023-04-20T02:07:00;101548;;;6.61;71.15
57250;BME280;43102;52.014;-0.680;2023-04-20T02:08:00;101548;;;6.61;71.15
57250;BME280;43102;52.014;-0.680;2023-04-20T02:09:00;101548;;;6.61;71.15
57250;BME280;43102;52.014;-0.680;2023-04-20T02:10:00;101548;;;6.61;71.15
57250;BME280;43102;52.014;-0.680;2023-04-20T02:11:00;101540;;;6.63;71.17
57250;BME280;43102;52.014;-0.680;2023-04-20T02:12:00;101540;;;6.63;71.17
57250;BME280;43102;52.014;-0.680;2023-04-20T02:13:00;101540;;;6.63;71.17
57250;BME280;43102;52.014;-0.680;2023-04-20T02:14:00;101540;;;6.63;71.17
57250;BME280;43102;52.014;-0.680;2023-04-20T02:15:00;101540;;;6.63;71.17
57250;BME280;43102;52.014;-0.680;2023-04-20T02:16:00;101541;;;6.56;71.82
57250;BME280;43102;52.014;-0.680;2023-04-20T02:17:00;101541;;;6.56;71.82
57250;BME280;43102;52.014;-0.680;2023-04-20T02:18:00;101541;;;6.56;71.82
57250;BME280;43102;52.014;-0.680;2023-04-20T02:19:00;101541;;;6.56;71.82
57250;BME280;43102;52.014;-0.680;2023-04-20T02:20:00;101541;;;6.56;71.82
57250;BME280;43102;52.014;-0.680;2023-04-20T02:21:00;101539;;;6.52;72.29
57250;BME280;43102;52.014;-0.680;2023-04-20T02:22:00;101539;;;6.52;72.29
57250;BME280;43102;52.014;-0.680;2023-04-20T02:23:00;101539;;;6.52;72.29
57250;BME280;43102;52.014;-0.680;2023-04-20T02:24:00;101539;;;6.52;72.29
57250;BME280;43102;52.014;-0.680;2023-04-20T02:25:00;101539;;;6.52;72.29
57250;BME280;43102;52.014;-0.680;2023-04-20T02:26:00;101534;;;6.52;72.34
57250;BME280;43102;52.014;-0.680;2023-04-20T02:27:00;101534;;;6.52;72.34
57250;BME280;43102;52.014;-0.680;2023-04-20T02:28:00;101534;;;6.52;72.34
57250;BME280;43102;52.014;-0.680;2023-04-20T02:29:00;101534;;;6.52;72.34
57250;BME280;43102;52.014;-0.680;2023-04-20T02:30:00;101534;;;6.52;72.34
57250;BME280;43102;52.014;-0.680;2023-04-20T02:31:00;101535;;;6.50;72.61
57250;BME280;43102;52.014;-0.680;2023-04-20T02:32:00;101535;;;6.50;72.61
57250;BME280;43102;52.014;-0.680;2023-04-20T02:33:00;101535;;;6.50;72.61
57250;BME280;43102;52.014;-0.680;2023-04-20T02:34:00;101535;;;6.50;72.61
57250;BME280;43102;52.014;-0.680;2023-04-20T02:35:00;101535;;;6.50;72.61
57250;BME280;43102;52.014;-0.680;2023-04-20T02:36:00;101536;;;6.50;72.78
57250;BME280;43102;52.014;-0.680;2023-04-20T02:37:00;101536;;;6.50;72.78
57250;BME280;43102;52.014;-0.680;2023-04-20T02:38:00;101536;;;6.50;72.78
57250;BME280;43102;52.014;-0.680;2023-04-20T02:39:00;101536;;;6.50;72.78
57250;BME280;43102;52.014;-0.680;2023-04-20T02:40:00;101536;;;6.50;72.78
57250;BME280;43102;52.014;-0.680;2023-04-20T02:41:00;101534;;;6.55;72.70
57250;BME280;43102;52.014;-0.680;2023-04-20T02:42:00;101534;;;6.55;72.70
57250;BME280;43102;52.014;-0.680;2023-04-20T02:43:00;101534;;;6.55;72.70
57250;BME280;43102;52.014;-0.680;2023-04-20T02:44:00;101534;;;6.55;72.70
57250;BME280;43102;52.014;-0.680;2023-04-20T02:45:00;101534;;;6.55;72.70
57250;BME280;43102;52.014;-0.680;2023-04-20T02:46:00;101534;;;6.53;72.70
57250;BME280;43102;52.014;-0.680;2023-04-20T02:47:00;101534;;;6.53;72.70
57250;BME280;43102;52.014;-0.680;2023-04-20T02:48:00;101534;;;6.53;72.70
57250;BME280;43102;52.014;-0.680;2023-04-20T02:49:00;101534;;;6.53;72.70
57250;BME280;43102;52.014;-0.680;2023-04-20T02:50:00;101534;;;6.53;72.70
57250;BME280;43102;52.014;-0.680;2023-04-20T02:51:00;101533;;;6.50;72.87
57250;BME280;43102;52.014;-0.680;2023-04-20T02:52:00;101533;;;6.50;72.87
57250;BME280;43102;52.014;-0.680;2023-04-20T02:53:00;101533;;;6.50;72.87
57250;BME280;43102;52.014;-0.680;2023-04-20T02:54:00;101533;;;6.50;72.87
57250;BME280;43102;52.014;-0.680;2023-04-20T02:55:00;101533;;;6.50;72.87
57250;BME280;43102;52.014;-0.680;2023-04-20T02:56:00;101535;;;6.51;73.07
57250;BME280;43102;52.014;-0.680;2023-04-20T02:57:00;101535;;;6.51;73.07
57250;BME280;43102;52.014;-0.680;2023-04-20T02:58:00;101535;;;6.51;73.07
57250;BME280;43102;52.014;-0.680;2023-04-20T02:59:00;101535;;;6.51;73.07
57250;BME280;43102;52.014;-0.680;2023-04-20T03:00:00;101535;;;6.51;73.07
57250;BME280;43102;52.014;-0.680;2023-04-20T03:01:00;101532;;;6.50;73.25
57250;BME280;43102;52.014;-0.680;2023-04-20T03:02:00;101532;;;6.50;73.25
57250;BME280;43102;52.014;-0.680;2023-04-20T03:03:00;101532;;;6.50;73.25
57250;BME280;43102;52.014;-0.680;2023-04-20T03:04:00;101532;;;6.50;73.25
57250;BME280;43102;52.014;-0.680;2023-04-20T03:05:00;101532;;;6.50;73.25
57250;BME280;43102;52.014;-0.680;2023-04-20T03:06:00;101529;;;6.46;73.41
57250;BME280;43102;52.014;-0.680;2023-04-20T03:07:00;101529;;;6.46;73.41
57250;BME280;43102;52.014;-0.680;2023-04-20T03:08:00;101529;;;6.46;73.41
57250;BME280;43102;52.014;-0.680;2023-04-20T03:09:00;101529;;;6.46;73.41
57250;BME280;43102;52.014;-0.680;2023-04-20T03:10:00;101529;;;6.46;73.41
57250;BME280;43102;52.014;-0.680;2023-04-20T03:11:00;101528;;;6.45;73.47
57250;BME280;43102;52.014;-0.680;2023-04-20T03:12:00;101528;;;6.45;73.47
57250;BME280;43102;52.014;-0.680;2023-04-20T03:13:00;101528;;;6.45;73.47
57250;BME280;43102;52.014;-0.680;2023-04-20T03:14:00;101528;;;6.45;73.47
57250;BME280;43102;52.014;-0.680;2023-04-20T03:15:00;101528;;;6.45;73.47
57250;BME280;43102;52.014;-0.680;2023-04-20T03:16:00;101528;;;6.33;73.96
57250;BME280;43102;52.014;-0.680;2023-04-20T03:17:00;101528;;;6.33;73.96
57250;BME280;43102;52.014;-0.680;2023-04-20T03:18:00;101528;;;6.33;73.96
57250;BME280;43102;52.014;-0.680;2023-04-20T03:19:00;101528;;;6.33;73.96
57250;BME280;43102;52.014;-0.680;2023-04-20T03:20:00;101528;;;6.33;73.96
57250;BME280;43102;52.014;-0.680;2023-04-20T03:21:00;101525;;;6.25;74.45
57250;BME280;43102;52.014;-0.680;2023-04-20T03:22:00;101525;;;6.25;74.45
57250;BME280;43102;52.014;-0.680;2023-04-20T03:23:00;101525;;;6.25;74.45
57250;BME280;43102;52.014;-0.680;2023-04-20T03:24:00;101525;;;6.25;74.45
57250;BME280;43102;52.014;-0.680;2023-04-20T03:25:00;101525;;;6.25;74.45
57250;BME280;43102;52.014;-0.680;2023-04-20T03:26:00;101528;;;6.22;74.63
57250;BME280;43102;52.014;-0.680;2023-04-20T03:27:00;101528;;;6.22;74.63
57250;BME280;43102;52.014;-0.680;2023-04-20T03:28:00;101528;;;6.22;74.63
57250;BME280;43102;52.014;-0.680;2023-04-20T03:29:00;101528;;;6.22;74.63
57250;BME280;43102;52.014;-0.680;2023-04-20T03:30:00;101528;;;6.22;74.63
57250;BME280;43102;52.014;-0.680;2023-04-20T03:31:00;101531;;;6.33;74.26
57250;BME280;43102;52.014;-0.680;2023-04-20T03:32:00;101531;;;6.33;74.26
57250;BME280;43102;52.014;-0.680;2023-04-20T03:33:00;101531;;;6.33;74.26
57250;BME280;43102;52.014;-0.680;2023-04-20T03:34:00;101531;;;6.33;74.26
57250;BME280;43102;52.014;-0.680;2023-04-20T03:35:00;101531;;;6.33;74.26
57250;BME280;43102;52.014;-0.680;2023-04-20T03:36:00;101534;;;6.23;74.48
57250;BME280;43102;52.014;-0.680;2023-04-20T03:37:00;101534;;;6.23;74.48
57250;BME280;43102;52.014;-0.680;2023-04-20T03:38:00;101534;;;6.23;74.48
57250;BME280;43102;52.014;-0.680;2023-04-20T03:39:00;101534;;;6.23;74.48
57250;BME280;43102;52.014;-0.680;2023-04-20T03:40:00;101534;;;6.23;74.48
57250;BME280;43102;52.014;-0.680;2023-04-20T03:41:00;101528;;;6.18;74.64
57250;BME280;43102;52.014;-0.680;2023-04-20T03:42:00;101528;;;6.18;74.64
57250;BME280;43102;52.014;-0.680;2023-04-20T03:43:00;101528;;;6.18;74.64
57250;BME280;43102;52.014;-0.680;2023-04-20T03:44:00;101528;;;6.18;74.64
57250;BME280;43102;52.014;-0.680;2023-04-20T03:45:00;101528;;;6.18;74.64
57250;BME280;43102;52.014;-0.680;2023-04-20T03:46:00;101529;;;6.12;74.80
57250;BME280;43102;52.014;-0.680;2023-04-20T03:47:00;101529;;;6.12;74.80
57250;BME280;43102;52.014;-0.680;2023-04-20T03:48:00;101529;;;6.12;74.80
57250;BME280;43102;52.014;-0.680;2023-04-20T03:49:00;101529;;;6.12;74.80
57250;BME280;43102;52.014;-0.680;2023-04-20T03:50:00;101529;;;6.12;74.80
57250;BME280;43102;52.014;-0.680;2023-04-20T03:51:00;101541;;;6.17;74.67
57250;BME280;43102;52.014;-0.680;2023-04-20T03:52:00;101541;;;6.17;74.67
57250;BME280;43102;52.014;-0.680;2023-04-20T03:53:00;101541;;;6.17;74.67
57250;BME280;43102;52.014;-0.680;2023-04-20T03:54:00;101541;;;6.17;74.67
57250;BME280;43102;52.014;-0.680;2023-04-20T03:55:00;101541;;;6.17;74.67
57250;BME280;43102;52.014;-0.680;2023-04-20T03:56:00;101544;;;6.17;74.52
57250;BME280;43102;52.014;-0.680;2023-04-20T03:57:00;101544;;;6.17;74.52
57250;BME280;43102;52.014;-0.680;2023-04-20T03:58:00;101544;;;6.17;74.52
57250;BME280;43102;52.014;-0.680;2023-04-20T03:59:00;101544;;;6.17;74.52
57250;BME280;43102;52.014;-0.680;2023-04-20T04:00:00;101544;;;6.17;74.52
57250;BME280;43102;52.014;-0.680;2023-04-20T04:01:00;101548;;;6.07;74.69
57250;BME280;43102;52.014;-0.680;2023-04-20T04:02:00;101548;;;6.07;74.69
57250;BME280;43102;52.014;-0.680;2023-04-20T04:03:00;101548;;;6.07;74.69
57250;BME280;43102;52.014;-0.680;2023-04-20T04:04:00;101548;;;6.07;74.69
57250;BME280;43102;52.014;-0.680;2023-04-20T04:05:00;101548;;;6.07;74.69
57250;BME280;43102;52.014;-0.680;2023-04-20T04:06:00;101540;;;6.11;74.50
57250;BME280;43102;52.014;-0.680;2023-04-20T04:07:00;101540;;;6.11;74.50
57250;BME280;43102;52.014;-0.680;2023-04-20T04:08:00;101540;;;6.11;74.50
57250;BME280;43102;52.014;-0.680;2023-04-20T04:09:00;101540;;;6.11;74.50
57250;BME280;43102;52.014;-0.680;2023-04-20T04:10:00;101540;;;6.11;74.50
57250;BME280;43102;52.014;-0.680;2023-04-20T04:11:00;101541;;;6.09;74.45
57250;BME280;43102;52.014;-0.680;2023-04-20T04:12:00;101541;;;6.09;74.45
57250;BME280;43102;52.014;-0.680;2023-04-20T04:13:00;101541;;;6.09;74.45
57250;BME280;43102;52.014;-0.680;2023-04-20T04:14:00;101541;;;6.09;74.45
57250;BME280;43102;52.014;-0.680;2023-04-20T04:15:00;101541;;;6.09;74.45
57250;BME280;43102;52.014;-0.680;2023-04-20T04:16:00;101544;;;6.10;74.44
57250;BME280;43102;52.014;-0.680;2023-04-20T04:17:00;101544;;;6.10;74.44
57250;BME280;43102;52.014;-0.680;2023-04-20T04:18:00;101544;;;6.10;74.44
57250;BME280;43102;52.014;-0.680;2023-04-20T04:19:00;101544;;;6.10;74.44
57250;BME280;43102;52.014;-0.680;2023-04-20T04:20:00;101544;;;6.10;74.44
57250;BME280;43102;52.014;-0.680;2023-04-20T04:21:00;101541;;;6.12;74.39
57250;BME280;43102;52.014;-0.680;2023-04-20T04:22:00;101541;;;6.12;74.39
57250;BME280;43102;52.014;-0.680;2023-04-20T04:23:00;101541;;;6.12;74.39
57250;BME280;43102;52.014;-0.680;2023-04-20T04:24:00;101541;;;6.12;74.39
57250;BME280;43102;52.014;-0.680;2023-04-20T04:25:00;101541;;;6.12;74.39
57250;BME280;43102;52.014;-0.680;2023-04-20T04:26:00;101549;;;6.12;74.24
57250;BME280;43102;52.014;-0.680;2023-04-20T04:27:00;101549;;;6.12;74.24
57250;BME280;43102;52.014;-0.680;2023-04-20T04:28:00;101549;;;6.12;74.24
57250;BME280;43102;52.014;-0.680;2023-04-20T04:29:00;101549;;;6.12;74.24
57250;BME280;43102;52.014;-0.680;2023-04-20T04:30:00;101549;;;6.12;74.24
57250;BME280;43102;52.014;-0.680;2023-04-20T04:31:00;101552;;;6.10;74.15
57250;BME280;43102;52.014;-0.680;2023-04-20T04:32:02;101552;;;6.10;74.15
57250;BME280;43102;52.014;-0.680;2023-04-20T04:33:00;101552;;;6.10;74.15
57250;BME280;43102;52.014;-0.680;2023-04-20T04:34:00;101552;;;6.10;74.15
57250;BME280;43102;52.014;-0.680;2023-04-20T04:35:00;101552;;;6.10;74.15
57250;BME280;43102;52.014;-0.680;2023-04-20T04:36:00;101550;;;6.03;74.04
57250;BME280;43102;52.014;-0.680;2023-04-20T04:37:00;101550;;;6.03;74.04
57250;BME280;43102;52.014;-0.680;2023-04-20T04:38:00;101550;;;6.03;74.04
57250;BME280;43102;52.014;-0.680;2023-04-20T04:39:00;101550;;;6.03;74.04
57250;BME280;43102;52.014;-0.680;2023-04-20T04:40:00;101550;;;6.03;74.04
57250;BME280;43102;52.014;-0.680;2023-04-20T04:41:00;101547;;;6.00;74.01
57250;BME280;43102;52.014;-0.680;2023-04-20T04:42:00;101547;;;6.00;74.01
57250;BME280;43102;52.014;-0.680;2023-04-20T04:43:00;101547;;;6.00;74.01
57250;BME280;43102;52.014;-0.680;2023-04-20T04:44:00;101547;;;6.00;74.01
57250;BME280;43102;52.014;-0.680;2023-04-20T04:45:00;101547;;;6.00;74.01
57250;BME280;43102;52.014;-0.680;2023-04-20T04:46:04;101549;;;5.96;74.01
57250;BME280;43102;52.014;-0.680;2023-04-20T04:47:01;101549;;;5.96;74.01
57250;BME280;43102;52.014;-0.680;2023-04-20T04:48:00;101549;;;5.96;74.01
57250;BME280;43102;52.014;-0.680;2023-04-20T04:49:00;101549;;;5.96;74.01
57250;BME280;43102;52.014;-0.680;2023-04-20T04:50:01;101549;;;5.96;74.01
57250;BME280;43102;52.014;-0.680;2023-04-20T04:51:00;101558;;;5.94;74.07
57250;BME280;43102;52.014;-0.680;2023-04-20T04:52:00;101558;;;5.94;74.07
57250;BME280;43102;52.014;-0.680;2023-04-20T04:53:00;101558;;;5.94;74.07
57250;BME280;43102;52.014;-0.680;2023-04-20T04:54:00;101558;;;5.94;74.07
57250;BME280;43102;52.014;-0.680;2023-04-20T04:55:00;101558;;;5.94;74.07
57250;BME280;43102;52.014;-0.680;2023-04-20T04:56:00;101559;;;5.96;74.13
57250;BME280;43102;52.014;-0.680;2023-04-20T04:57:00;101559;;;5.96;74.13
57250;BME280;43102;52.014;-0.680;2023-04-20T04:58:00;101559;;;5.96;74.13
57250;BME280;43102;52.014;-0.680;2023-04-20T04:59:00;101559;;;5.96;74.13
57250;BME280;43102;52.014;-0.680;2023-04-20T05:00:00;101559;;;5.96;74.13
57250;BME280;43102;52.014;-0.680;2023-04-20T05:01:00;101557;;;6.00;74.06
57250;BME280;43102;52.014;-0.680;2023-04-20T05:02:00;101557;;;6.00;74.06
57250;BME280;43102;52.014;-0.680;2023-04-20T05:03:00;101557;;;6.00;74.06
57250;BME280;43102;52.014;-0.680;2023-04-20T05:04:00;101557;;;6.00;74.06
57250;BME280;43102;52.014;-0.680;2023-04-20T05:05:00;101557;;;6.00;74.06
57250;BME280;43102;52.014;-0.680;2023-04-20T05:06:00;101561;;;6.03;74.11
57250;BME280;43102;52.014;-0.680;2023-04-20T05:07:00;101561;;;6.03;74.11
57250;BME280;43102;52.014;-0.680;2023-04-20T05:08:00;101561;;;6.03;74.11
57250;BME280;43102;52.014;-0.680;2023-04-20T05:09:00;101561;;;6.03;74.11
57250;BME280;43102;52.014;-0.680;2023-04-20T05:10:00;101561;;;6.03;74.11
57250;BME280;43102;52.014;-0.680;2023-04-20T05:11:00;101564;;;6.00;74.12
57250;BME280;43102;52.014;-0.680;2023-04-20T05:12:00;101564;;;6.00;74.12
57250;BME280;43102;52.014;-0.680;2023-04-20T05:13:00;101564;;;6.00;74.12
57250;BME280;43102;52.014;-0.680;2023-04-20T05:14:00;101564;;;6.00;74.12
57250;BME280;43102;52.014;-0.680;2023-04-20T05:15:00;101564;;;6.00;74.12
57250;BME280;43102;52.014;-0.680;2023-04-20T05:16:00;101560;;;6.01;74.23
57250;BME280;43102;52.014;-0.680;2023-04-20T05:17:00;101560;;;6.01;74.23
57250;BME280;43102;52.014;-0.680;2023-04-20T05:18:00;101560;;;6.01;74.23
57250;BME280;43102;52.014;-0.680;2023-04-20T05:19:00;101560;;;6.01;74.23
57250;BME280;43102;52.014;-0.680;2023-04-20T05:20:00;101560;;;6.01;74.23
57250;BME280;43102;52.014;-0.680;2023-04-20T05:21:00;101560;;;6.01;74.42
57250;BME280;43102;52.014;-0.680;2023-04-20T05:22:00;101560;;;6.01;74.42
57250;BME280;43102;52.014;-0.680;2023-04-20T05:23:00;101560;;;6.01;74.42
57250;BME280;43102;52.014;-0.680;2023-04-20T05:24:00;101560;;;6.01;74.42
57250;BME280;43102;52.014;-0.680;2023-04-20T05:25:00;101560;;;6.01;74.42
57250;BME280;43102;52.014;-0.680;2023-04-20T05:26:00;101558;;;6.05;74.47